Latest Weather Observations for Bundaberg

IDQ60801

Issued at 12:02 pm EST Monday 26 January 2015 (issued every 30 minutes, with the page automatically refreshed every 10 minutes)

About weather observations | Map of weather stations | Latest weather observations for QLD | Other Formats
Station Details ID: 039128 Name: BUNDABERG AERO Lat: -24.91 Lon: 152.32 Height: 30.82 m
Data from the previous 72 hours. | See also: Recent months at Bundaberg
Date/Time
EST
Temp
°C
App
Temp
°C
Dew
Point
Rel
Hum
%
Delta-T
°C
Wind Press
QNH
hPa
Press
MSL
hPa
Rain
since 9 am
mm
Dir
 
Spd
km/h
Gust
km/h
Spd
kts
Gust
kts
26/12:00pm 33.1 37.5 23.4 56 6.7 SE 6 11 3 6 1004.8 1004.6 0.0
26/11:30am 32.4 36.1 23.3 58 6.3 ENE 9 13 5 7 1005.2 1005.0 0.0
26/11:00am 31.8 36.6 22.8 59 6.2 NNE 2 7 1 4 1005.5 1005.3 0.0
26/10:30am 31.3 35.8 22.9 61 5.8 ENE 4 7 2 4 1005.8 1005.6 0.0
26/10:00am 30.8 34.8 22.7 62 5.6 S 6 9 3 5 1006.0 1005.8 0.0
26/09:30am 30.4 34.4 22.8 64 5.2 SSE 6 11 3 6 1006.1 1005.9 0.0
26/09:00am 29.4 33.0 22.1 65 4.9 ESE 6 11 3 6 1006.2 1006.0 1.0
26/08:30am 28.7 32.3 22.4 68 4.3 SSE 7 13 4 7 1006.4 1006.2 1.0
26/08:00am 27.9 31.7 22.4 72 3.7 E 6 9 3 5 1006.4 1006.2 1.0
26/07:30am 25.9 30.2 22.6 82 2.2 SSE 4 7 2 4 1006.4 1006.2 1.0
26/07:00am 25.0 28.2 22.3 85 1.8 SE 9 13 5 7 1006.4 1006.2 1.0
26/06:30am 24.5 27.8 22.6 89 1.3 E 9 9 5 5 1006.3 1006.1 1.0
26/06:00am 24.1 29.1 22.5 91 1.1 CALM 0 0 0 0 1006.0 1005.8 1.0
26/05:30am 23.4 28.2 22.2 93 0.8 CALM 0 0 0 0 1005.4 1005.2 1.0
26/05:00am 23.5 27.0 21.9 91 1.1 S 6 7 3 4 1005.3 1005.1 1.0
26/04:30am 23.5 26.6 22.1 92 0.9 W 9 11 5 6 1005.0 1004.8 1.0
26/04:00am 23.6 27.2 22.4 93 0.8 W 7 9 4 5 1004.8 1004.6 1.0
26/03:30am 23.8 28.6 22.2 91 1.1 CALM 0 0 0 0 1004.8 1004.6 1.0
26/03:00am 23.9 27.2 22.5 92 0.9 SSW 9 13 5 7 1004.4 1004.2 1.0
26/02:30am 23.9 27.2 22.5 92 0.9 SSW 9 11 5 6 1004.7 1004.5 1.0
26/02:00am 24.0 28.9 22.3 90 1.1 CALM 0 0 0 0 1004.7 1004.5 1.0
26/01:30am 24.1 27.7 22.4 90 1.1 SW 7 9 4 5 1005.2 1005.0 1.0
26/01:00am 24.4 29.3 22.3 88 1.4 CALM 0 0 0 0 1005.7 1005.5 1.0
26/12:30am 24.2 27.9 22.3 89 1.3 ENE 6 11 3 6 1006.1 1005.9 1.0
26/12:00am 24.1 28.2 21.6 86 1.7 WSW 2 7 1 4 1006.2 1006.0 1.0
 
Date/Time
EST
Temp
°C
App
Temp
°C
Dew
Point
Rel
Hum
%
Delta-T
°C
Wind Press
QNH
hPa
Press
MSL
hPa
Rain
since 9 am
mm
Dir
 
Spd
km/h
Gust
km/h
Spd
kts
Gust
kts
25/11:30pm 24.1 27.7 22.0 88 1.4 WSW 6 11 3 6 1006.6 1006.4 1.0
25/11:00pm 24.0 27.0 22.6 92 0.9 WNW 11 15 6 8 1006.2 1006.0 1.0
25/10:30pm 24.3 28.3 22.7 91 1.1 WSW 6 9 3 5 1006.7 1006.5 1.0
25/10:00pm 24.4 27.9 22.8 91 1.1 WNW 9 11 5 6 1006.0 1005.8 1.0
25/09:30pm 25.0 27.7 22.9 88 1.4 N 13 17 7 9 1005.5 1005.3 1.0
25/09:00pm 24.5 26.5 22.2 87 1.5 NNE 15 19 8 10 1005.3 1005.1 1.0
25/08:30pm 24.7 26.6 22.0 85 1.8 NNW 15 17 8 9 1005.2 1005.0 0.8
25/08:00pm 25.5 25.1 21.0 76 3.0 NNW 24 32 13 17 1005.3 1005.1 0.8
25/07:30pm 25.5 26.6 21.2 77 2.8 WNW 17 20 9 11 1006.1 1005.9 0.6
25/07:00pm 25.5 27.4 21.4 78 2.7 NE 13 20 7 11 1005.1 1004.9 0.6
25/06:30pm 26.0 24.8 20.8 73 3.4 ESE 28 35 15 19 1005.3 1005.1 0.6
25/06:06pm 28.1 28.8 23.0 74 3.5 SE 24 48 13 26 1005.1 1004.9 0.6
25/06:00pm 28.9 33.9 26.5 87 1.7 ESE 13 22 7 12 1004.2 1004.0 0.6
25/05:30pm 29.0 33.0 25.6 82 2.4 N 15 20 8 11 1003.0 1002.8 0.6
25/05:00pm 28.6 32.1 25.4 83 2.3 N 17 20 9 11 1002.6 1002.4 0.6
25/04:30pm 28.6 30.0 26.0 86 1.8 NNW 30 39 16 21 1003.3 1003.1 0.0
25/04:00pm 29.4 31.2 26.0 82 2.4 N 28 37 15 20 1003.5 1003.3 0.0
25/03:30pm 30.7 34.0 26.0 76 3.3 NNE 20 24 11 13 1002.8 1002.6 0.0
25/03:00pm 31.7 34.9 26.5 74 3.7 N 22 30 12 16 1003.1 1002.9 0.0
25/02:30pm 32.7 36.7 27.0 72 4.1 N 20 24 11 13 1003.2 1003.0 0.0
25/02:00pm 32.9 36.4 25.4 64 5.3 N 17 24 9 13 1003.5 1003.3 0.0
25/01:30pm 33.1 37.2 26.4 68 4.8 NNE 17 28 9 15 1003.7 1003.5 0.0
25/01:00pm 33.4 37.8 26.2 66 5.2 N 15 22 8 12 1004.0 1003.8 0.0
25/12:30pm 32.6 36.0 25.2 65 5.2 N 17 22 9 12 1004.4 1004.2 0.0
25/12:00pm 32.3 36.5 25.4 67 4.9 N 13 22 7 12 1004.9 1004.7 0.0
25/11:30am 32.6 36.7 24.6 62 5.6 NW 11 19 6 10 1005.5 1005.3 0.0
25/11:00am 32.0 35.9 24.3 63 5.4 N 11 20 6 11 1006.0 1005.8 0.0
25/10:30am 32.1 35.8 25.7 69 4.6 NNW 17 24 9 13 1006.4 1006.2 0.0
25/10:00am 31.6 35.0 25.2 69 4.5 NW 17 24 9 13 1006.8 1006.6 0.0
25/09:30am 30.9 34.1 25.0 71 4.2 NNW 17 20 9 11 1006.8 1006.6 0.0
25/09:00am 29.9 33.5 24.3 72 3.9 N 13 20 7 11 1007.1 1006.9 0.0
25/08:30am 29.4 34.3 25.2 78 3.0 N 9 15 5 8 1007.5 1007.3 0.0
25/08:00am 28.7 33.8 24.7 79 2.8 N 6 13 3 7 1007.7 1007.5 0.0
25/07:30am 28.1 33.9 24.5 81 2.5 NE 2 7 1 4 1007.7 1007.5 0.0
25/07:00am 26.7 31.7 24.5 88 1.5 SE 6 7 3 4 1007.5 1007.3 0.0
25/06:30am 25.4 30.1 24.0 92 1.0 S 6 9 3 5 1007.2 1007.0 0.0
25/06:00am 24.5 28.8 23.6 95 0.6 SSE 7 9 4 5 1007.0 1006.8 0.0
25/05:30am 24.1 28.2 23.2 95 0.6 SSE 7 9 4 5 1006.8 1006.6 0.0
25/05:00am 24.1 28.2 23.2 95 0.6 SSE 7 9 4 5 1006.3 1006.1 0.0
25/04:30am 24.0 29.3 23.1 95 0.6 CALM 0 0 0 0 1006.1 1005.9 0.0
25/04:00am 24.0 28.5 23.0 94 0.7 SE 4 7 2 4 1005.9 1005.7 0.0
25/03:30am 24.2 29.5 23.0 93 0.8 CALM 0 0 0 0 1005.8 1005.6 0.0
25/03:00am 24.4 29.8 23.2 93 0.8 CALM 0 0 0 0 1005.8 1005.6 0.0
25/02:30am 24.6 30.0 23.2 92 0.9 CALM 0 0 0 0 1006.0 1005.8 0.0
25/02:00am 24.8 30.2 23.2 91 1.1 CALM 0 0 0 0 1006.2 1006.0 0.0
25/01:30am 25.3 29.7 23.4 89 1.3 NNE 6 7 3 4 1006.4 1006.2 0.0
25/01:00am 25.5 29.8 23.6 89 1.3 NE 7 9 4 5 1006.7 1006.5 0.0
25/12:30am 25.6 29.8 23.5 88 1.4 N 7 9 4 5 1007.2 1007.0 0.0
25/12:00am 25.8 29.6 23.5 87 1.6 NNE 9 11 5 6 1007.3 1007.1 0.0
 
Date/Time
EST
Temp
°C
App
Temp
°C
Dew
Point
Rel
Hum
%
Delta-T
°C
Wind Press
QNH
hPa
Press
MSL
hPa
Rain
since 9 am
mm
Dir
 
Spd
km/h
Gust
km/h
Spd
kts
Gust
kts
24/11:30pm 25.8 29.2 23.3 86 1.7 NE 11 13 6 7 1007.2 1007.0 0.0
24/11:00pm 25.7 29.5 23.4 87 1.6 ENE 9 13 5 7 1007.2 1007.0 0.0
24/10:30pm 25.7 29.5 23.4 87 1.6 ENE 9 11 5 6 1007.4 1007.2 0.0
24/10:00pm 25.8 28.9 22.9 84 2.0 ENE 11 15 6 8 1007.3 1007.1 0.0
24/09:30pm 26.2 29.4 23.1 83 2.1 NE 11 15 6 8 1007.1 1006.9 0.0
24/09:00pm 26.5 29.3 23.0 81 2.4 NE 13 17 7 9 1007.0 1006.8 0.0
24/08:30pm 26.8 29.7 23.1 80 2.5 NNE 13 17 7 9 1006.9 1006.7 0.0
24/08:00pm 26.7 29.8 23.6 83 2.1 NE 13 17 7 9 1006.4 1006.2 0.0
24/07:30pm 27.1 29.7 23.3 80 2.6 N 15 19 8 10 1006.2 1006.0 0.0
24/07:00pm 27.2 29.5 22.8 77 3.0 NNE 15 17 8 9 1005.8 1005.6 0.0
24/06:30pm 27.4 29.9 23.2 78 2.9 NE 15 22 8 12 1005.5 1005.3 0.0
24/06:00pm 27.9 30.1 23.3 76 3.2 NE 17 20 9 11 1005.3 1005.1 0.0
24/05:30pm 28.4 30.7 23.5 75 3.4 NNE 17 24 9 13 1005.3 1005.1 0.0
24/05:00pm 28.5 30.4 23.4 74 3.5 NNE 19 26 10 14 1004.5 1004.3 0.0
24/04:30pm 28.7 30.0 23.4 73 3.6 NNE 22 30 12 16 1004.3 1004.1 0.0
24/04:00pm 29.0 30.8 22.5 68 4.4 NE 17 28 9 15 1004.2 1004.0 0.0
24/03:30pm 31.8 34.3 21.0 52 7.2 SW 9 15 5 8 1004.0 1003.8 0.0
24/03:00pm 32.5 34.8 21.4 52 7.5 SW 11 17 6 9 1003.9 1003.7 0.0
24/02:30pm 32.5 33.9 20.4 49 8.1 SSW 13 19 7 10 1004.2 1004.0 0.0
24/02:00pm 31.6 33.6 20.8 52 7.2 SW 11 22 6 12 1004.5 1004.3 0.0
24/01:30pm 31.8 33.6 21.9 55 6.7 SW 15 22 8 12 1004.6 1004.4 0.0
24/01:00pm 31.0 32.2 20.0 52 7.3 SW 13 22 7 12 1004.9 1004.7 0.0
24/12:30pm 31.4 32.9 21.3 55 6.8 WSW 15 26 8 14 1005.1 1004.9 0.0
24/12:00pm 30.6 31.5 20.8 56 6.6 WSW 17 22 9 12 1005.4 1005.2 0.0
24/11:30am 30.1 30.8 20.4 56 6.4 WSW 17 24 9 13 1005.7 1005.5 0.0
24/11:00am 30.1 32.0 22.0 62 5.5 WSW 15 24 8 13 1006.0 1005.8 0.0
24/10:30am 28.4 30.1 20.9 64 5.0 WSW 13 20 7 11 1006.2 1006.0 0.0
24/10:00am 28.3 31.1 22.3 70 4.1 W 11 24 6 13 1006.1 1005.9 0.0
24/09:30am 27.4 29.6 21.2 69 4.1 SW 11 19 6 10 1006.1 1005.9 0.0
24/09:00am 26.4 28.5 20.9 72 3.6 SSW 11 17 6 9 1006.3 1006.1 10.8
24/08:30am 25.8 27.4 20.8 74 3.3 WSW 13 19 7 10 1006.3 1006.1 10.8
24/08:00am 25.2 26.6 21.1 78 2.7 SW 15 19 8 10 1006.4 1006.2 10.8
24/07:30am 24.3 26.3 20.8 81 2.3 SW 11 17 6 9 1006.3 1006.1 10.8
24/07:00am 23.5 25.2 21.0 86 1.6 SW 13 17 7 9 1006.1 1005.9 10.8
24/06:30am 22.8 25.0 21.1 90 1.1 SW 11 17 6 9 1005.9 1005.7 10.8
24/06:00am 22.1 25.1 20.9 93 0.8 SW 6 9 3 5 1005.8 1005.6 10.8
24/05:30am 21.6 24.3 20.6 94 0.6 SSW 7 9 4 5 1005.4 1005.2 10.8
24/05:00am 21.7 25.7 20.5 93 0.8 CALM 0 0 0 0 1004.8 1004.6 10.8
24/04:30am 21.8 24.2 20.8 94 0.6 SSW 9 11 5 6 1004.2 1004.0 10.8
24/04:00am 21.9 24.3 20.9 94 0.7 S 9 13 5 7 1003.9 1003.7 10.8
24/03:30am 22.0 24.5 21.0 94 0.7 SSW 9 13 5 7 1003.6 1003.4 10.8
24/03:00am 22.3 24.5 21.1 93 0.8 SSW 11 15 6 8 1003.7 1003.5 10.8
24/02:30am 22.5 24.7 21.1 92 0.9 SSW 11 17 6 9 1003.8 1003.6 10.8
24/02:00am 22.6 25.6 21.2 92 0.9 SSW 7 11 4 6 1003.8 1003.6 10.8
24/01:30am 22.8 25.5 21.3 91 1.0 SSW 9 11 5 6 1004.0 1003.8 10.8
24/01:00am 22.9 25.2 21.4 91 1.0 SSW 11 15 6 8 1004.2 1004.0 10.8
24/12:30am 22.8 25.5 21.3 91 1.0 SSW 9 11 5 6 1004.5 1004.3 10.8
24/12:00am 23.0 26.1 21.4 91 1.1 SW 7 13 4 7 1004.9 1004.7 10.8
 
Date/Time
EST
Temp
°C
App
Temp
°C
Dew
Point
Rel
Hum
%
Delta-T
°C
Wind Press
QNH
hPa
Press
MSL
hPa
Rain
since 9 am
mm
Dir
 
Spd
km/h
Gust
km/h
Spd
kts
Gust
kts
23/11:30pm 23.3 26.1 21.6 90 1.1 SW 9 13 5 7 1005.0 1004.8 10.8
23/11:00pm 23.6 26.6 22.0 91 1.1 SW 9 13 5 7 1005.1 1004.9 10.8
23/10:30pm 23.8 26.8 21.9 89 1.3 S 9 13 5 7 1004.9 1004.7 10.8
23/10:00pm 24.2 27.4 22.3 89 1.3 S 9 11 5 6 1005.1 1004.9 10.8
23/09:30pm 24.5 27.7 22.4 88 1.4 S 9 15 5 8 1004.9 1004.7 10.8
23/09:00pm 24.7 28.9 23.1 91 1.1 SSW 6 9 3 5 1004.6 1004.4 10.8
23/08:30pm 24.9 28.7 23.5 92 1.0 SW 9 13 5 7 1004.5 1004.3 10.8
23/08:00pm 25.0 30.4 23.2 90 1.2 CALM 0 0 0 0 1004.0 1003.8 10.8
23/07:30pm 25.2 30.5 23.1 88 1.4 CALM 0 6 0 3 1003.9 1003.7 10.8
23/07:00pm 25.4 29.5 23.3 88 1.4 NW 7 9 4 5 1003.8 1003.6 10.8
23/06:30pm 25.6 29.0 23.3 87 1.6 NNW 11 15 6 8 1003.0 1002.8 10.8
23/06:00pm 26.1 28.4 22.8 82 2.2 N 15 19 8 10 1002.4 1002.2 10.8
23/05:30pm 26.9 30.3 22.7 78 2.8 N 9 13 5 7 1002.5 1002.3 10.8
23/05:00pm 26.7 29.9 23.0 80 2.5 N 11 13 6 7 1002.0 1001.9 10.8
23/04:30pm 27.7 32.2 21.5 69 4.1 CALM 0 0 0 0 1001.9 1001.8 10.8
23/04:00pm 27.6 31.3 23.2 77 3.0 SSW 9 11 5 6 1001.9 1001.8 10.8
23/03:30pm 28.5 31.1 22.0 68 4.4 WNW 11 19 6 10 1002.0 1001.9 10.8
23/03:00pm 28.1 31.2 23.5 76 3.2 NW 13 20 7 11 1002.3 1002.1 10.8
23/02:30pm 27.3 30.9 23.7 81 2.5 NW 11 17 6 9 1002.7 1002.5 10.8
23/02:04pm 26.0 29.2 23.1 84 2.0 NNW 11 13 6 7 1003.1 1002.9 10.8
23/02:00pm 25.9 29.8 23.6 87 1.6 NW 9 13 5 7 1003.3 1003.1 10.8
23/01:41pm 24.3 24.6 22.2 88 1.4 NNW 24 33 13 18 1003.6 1003.4 7.4
23/01:30pm 25.9 27.3 23.6 87 1.6 NNW 22 26 12 14 1003.5 1003.3 6.0
23/01:00pm 27.9 29.8 23.5 77 3.0 NW 19 26 10 14 1003.4 1003.2 6.0
23/12:30pm 27.5 30.1 23.3 78 2.9 NW 15 20 8 11 1003.6 1003.4 6.0

Other Formats:

Comma delimited format used in spreadsheet applications
http://www.bom.gov.au/fwo/IDQ60801/IDQ60801.94387.axf

JavaScript Object Notation format (JSON) in row-major order
http://www.bom.gov.au/fwo/IDQ60801/IDQ60801.94387.json